Time;durP1;ratioP1;P1;durP2;ratioP2;P2;SDS_P1;SDS_P2;PMS_P1;PMS_P2;Temp;Humidity;BMP_temperature;BMP_pressure;BME280_temperature;BME280_humidity;BME280_pressure;Samples;Min_cycle;Max_cycle;Signal;HPM_P1;HPM_P2
2021/12/24 00:00:42;;;;;;;35.70;15.38;;;;;;;;;;5059317;28;20422;-74
2021/12/24 00:03:08;;;;;;;36.50;15.77;;;;;;;;;;5062160;28;20115;-74
2021/12/24 00:05:34;;;;;;;38.35;16.55;;;;;;;;;;5064693;28;20462;-74
2021/12/24 00:08:00;;;;;;;33.25;15.90;;;;;;;;;;5075202;28;20028;-74
2021/12/24 00:10:26;;;;;;;38.03;16.48;;;;;;;;;;5062696;28;20023;-74
2021/12/24 00:13:00;;;;;;;40.67;17.13;;;;;;;;;;5059578;28;20087;-74
2021/12/24 00:18:20;;;;;;;32.75;14.27;;;;;;;;;;5050724;28;20040;-73
2021/12/24 00:37:01;;;;;;;34.58;15.68;;;;;;;;;;5055631;28;20485;-74
2021/12/24 00:39:26;;;;;;;39.65;15.43;;;;;;;;;;5039201;28;20499;-74
2021/12/24 00:41:51;;;;;;;32.55;15.70;;;;;;;;;;5042627;28;20083;-74
2021/12/24 00:44:17;;;;;;;31.58;13.65;;;;;;;;;;5045725;28;20116;-74
2021/12/24 00:46:42;;;;;;;37.70;14.48;;;;;;;;;;5043141;28;20064;-74
2021/12/24 00:49:08;;;;;;;35.42;15.75;;;;;;;;;;5032613;28;20519;-74
2021/12/24 00:56:51;;;;;;;39.28;16.05;;;;;;;;;;5038987;28;20520;-74
2021/12/24 00:59:16;;;;;;;35.13;15.27;;;;;;;;;;5029809;28;20056;-74
2021/12/24 01:01:42;;;;;;;33.28;14.90;;;;;;;;;;5062685;28;20803;-74
2021/12/24 01:04:07;;;;;;;34.80;13.88;;;;;;;;;;5058711;28;20146;-74
2021/12/24 01:06:32;;;;;;;39.15;15.88;;;;;;;;;;5064322;28;20036;-74
2021/12/24 01:08:58;;;;;;;37.50;15.30;;;;;;;;;;5070501;28;20041;-74
2021/12/24 01:11:23;;;;;;;33.67;14.35;;;;;;;;;;5039257;28;20045;-74
2021/12/24 01:13:48;;;;;;;34.45;13.90;;;;;;;;;;5048371;28;20759;-74
2021/12/24 01:19:13;;;;;;;33.83;14.65;;;;;;;;;;5057706;28;20045;-74
2021/12/24 01:22:03;;;;;;;44.40;16.27;;;;;;;;;;5051798;28;20044;-74
2021/12/24 01:24:45;;;;;;;34.40;17.42;;;;;;;;;;5052656;28;20037;-74
2021/12/24 01:27:39;;;;;;;34.50;14.20;;;;;;;;;;5047154;28;20099;-74
2021/12/24 01:37:58;;;;;;;;;;;;;;;;;;5060016;28;20121;-74
2021/12/24 01:40:39;;;;;;;25.42;12.07;;;;;;;;;;5062025;28;19923;-74
2021/12/24 01:43:05;;;;;;;38.92;16.83;;;;;;;;;;5064925;28;20407;-74
2021/12/24 01:45:34;;;;;;;31.20;12.82;;;;;;;;;;5049790;28;20037;-74
2021/12/24 01:48:08;;;;;;;34.70;15.13;;;;;;;;;;5030574;28;20090;-74
2021/12/24 01:50:35;;;;;;;39.83;15.57;;;;;;;;;;5038636;28;20057;-74
2021/12/24 01:53:04;;;;;;;34.85;13.70;;;;;;;;;;5031722;28;20036;-74
2021/12/24 01:55:29;;;;;;;34.92;14.30;;;;;;;;;;5027697;28;20031;-74
2021/12/24 01:57:55;;;;;;;37.83;15.18;;;;;;;;;;5043225;28;20044;-74
2021/12/24 02:00:26;;;;;;;33.83;15.82;;;;;;;;;;5041056;28;20036;-74
2021/12/24 02:02:52;;;;;;;33.55;14.05;;;;;;;;;;5034060;28;20041;-74
2021/12/24 02:05:18;;;;;;;33.70;14.02;;;;;;;;;;5033970;28;20368;-74
2021/12/24 02:07:44;;;;;;;35.80;14.75;;;;;;;;;;5036100;28;20112;-74
2021/12/24 02:10:12;;;;;;;34.33;14.45;;;;;;;;;;5031064;28;20120;-74
2021/12/24 02:12:38;;;;;;;38.08;15.13;;;;;;;;;;5040007;28;20048;-74
2021/12/24 02:15:11;;;;;;;32.92;13.73;;;;;;;;;;5031937;28;20053;-74
2021/12/24 02:28:52;;;;;;;35.05;14.65;;;;;;;;;;5026762;28;20107;-74
2021/12/24 02:31:24;;;;;;;34.10;15.07;;;;;;;;;;5038640;28;20522;-74
2021/12/24 02:33:50;;;;;;;32.97;12.30;;;;;;;;;;5038731;28;20044;-74
2021/12/24 02:36:15;;;;;;;32.13;13.88;;;;;;;;;;5035818;28;20086;-74
2021/12/24 02:38:42;;;;;;;39.00;15.10;;;;;;;;;;5035580;28;20283;-74
2021/12/24 02:41:08;;;;;;;35.05;14.48;;;;;;;;;;5027412;28;20104;-74
2021/12/24 02:43:34;;;;;;;36.70;15.02;;;;;;;;;;5028772;28;20116;-74
2021/12/24 02:46:09;;;;;;;42.75;15.73;;;;;;;;;;5029625;28;20064;-74
2021/12/24 02:56:24;;;;;;;37.03;14.60;;;;;;;;;;5043284;28;20103;-74
2021/12/24 02:58:50;;;;;;;38.28;16.20;;;;;;;;;;5028307;28;20521;-74
2021/12/24 03:01:23;;;;;;;40.85;15.85;;;;;;;;;;5031635;28;20125;-74
2021/12/24 03:03:50;;;;;;;36.03;13.88;;;;;;;;;;5037039;28;20041;-74
2021/12/24 03:06:21;;;;;;;32.50;14.05;;;;;;;;;;5048064;28;20037;-74
2021/12/24 03:08:47;;;;;;;31.10;15.05;;;;;;;;;;5034955;28;20044;-74
2021/12/24 03:11:13;;;;;;;35.00;14.15;;;;;;;;;;5023805;28;20025;-74
2021/12/24 03:13:40;;;;;;;30.92;12.02;;;;;;;;;;5032051;28;20059;-74
2021/12/24 03:16:06;;;;;;;31.08;12.48;;;;;;;;;;5032329;28;20040;-74
2021/12/24 03:18:34;;;;;;;38.83;13.13;;;;;;;;;;5047121;28;20035;-74
2021/12/24 03:21:06;;;;;;;37.40;13.40;;;;;;;;;;5029719;28;20059;-74
2021/12/24 03:26:01;;;;;;;37.70;14.70;;;;;;;;;;5030374;28;20033;-74
2021/12/24 03:28:26;;;;;;;36.25;15.30;;;;;;;;;;5030447;28;20044;-74
2021/12/24 03:30:52;;;;;;;38.95;15.50;;;;;;;;;;5046040;28;20061;-74
2021/12/24 03:33:17;;;;;;;32.95;13.90;;;;;;;;;;5031121;28;20136;-74
2021/12/24 03:35:43;;;;;;;28.92;12.85;;;;;;;;;;5043218;28;20450;-74
2021/12/24 03:38:08;;;;;;;35.13;14.23;;;;;;;;;;5029331;28;20091;-74
2021/12/24 03:40:33;;;;;;;39.05;14.77;;;;;;;;;;5041519;28;20028;-74
2021/12/24 03:42:59;;;;;;;37.75;15.65;;;;;;;;;;5029536;28;20037;-74
2021/12/24 03:45:57;;;;;;;35.53;14.57;;;;;;;;;;5038968;28;20308;-74
2021/12/24 03:48:27;;;;;;;32.17;13.75;;;;;;;;;;5047666;28;20682;-74
2021/12/24 03:51:17;;;;;;;37.47;14.23;;;;;;;;;;5047121;28;20680;-74
2021/12/24 03:56:30;;;;;;;32.83;13.48;;;;;;;;;;5055136;28;20761;-74
2021/12/24 03:58:55;;;;;;;38.90;15.43;;;;;;;;;;5037758;28;20754;-74
2021/12/24 04:01:21;;;;;;;32.42;13.60;;;;;;;;;;5047409;28;20029;-74
2021/12/24 04:03:46;;;;;;;34.80;14.98;;;;;;;;;;5046835;28;20037;-74
2021/12/24 04:06:11;;;;;;;35.88;13.68;;;;;;;;;;5028870;28;20040;-74
2021/12/24 04:08:38;;;;;;;30.08;13.73;;;;;;;;;;5046804;28;20056;-74
2021/12/24 04:11:04;;;;;;;29.88;12.95;;;;;;;;;;5036174;28;20514;-74
2021/12/24 04:13:30;;;;;;;28.63;13.88;;;;;;;;;;5054378;28;20021;-74
2021/12/24 04:15:56;;;;;;;35.17;13.82;;;;;;;;;;5043177;28;21334;-74
2021/12/24 04:18:40;;;;;;;32.45;14.25;;;;;;;;;;5031714;28;20037;-74
2021/12/24 04:26:35;;;;;;;33.08;12.35;;;;;;;;;;5044866;28;20064;-74
2021/12/24 04:29:01;;;;;;;31.90;13.30;;;;;;;;;;5042442;28;20024;-74
2021/12/24 04:31:37;;;;;;;30.73;12.77;;;;;;;;;;5043754;28;20025;-73
2021/12/24 04:34:03;;;;;;;27.27;12.65;;;;;;;;;;5046553;28;20110;-74
2021/12/24 05:03:27;;;;;;;26.88;10.20;;;;;;;;;;5038622;28;20457;-74
2021/12/24 05:06:05;;;;;;;30.23;11.32;;;;;;;;;;5043387;28;20056;-74
2021/12/24 05:08:39;;;;;;;29.98;11.55;;;;;;;;;;5046647;28;20036;-74
2021/12/24 05:11:10;;;;;;;26.48;10.85;;;;;;;;;;5045708;28;20060;-74
2021/12/24 05:13:36;;;;;;;28.55;11.48;;;;;;;;;;5046933;28;20029;-74
2021/12/24 05:16:13;;;;;;;29.40;10.75;;;;;;;;;;5046008;28;20037;-74
2021/12/24 05:19:05;;;;;;;32.53;11.77;;;;;;;;;;5046506;28;20041;-74
2021/12/24 05:21:33;;;;;;;26.90;11.13;;;;;;;;;;5052256;28;20048;-74
2021/12/24 05:24:06;;;;;;;26.58;10.63;;;;;;;;;;5053408;28;20032;-74
2021/12/24 05:26:33;;;;;;;26.85;11.10;;;;;;;;;;5052585;28;20044;-74
2021/12/24 05:28:59;;;;;;;27.92;11.05;;;;;;;;;;5060418;28;20073;-74
2021/12/24 05:31:25;;;;;;;28.08;11.20;;;;;;;;;;5044788;28;20048;-74
2021/12/24 05:33:51;;;;;;;31.23;11.80;;;;;;;;;;5036979;28;20028;-74
2021/12/24 05:36:17;;;;;;;24.25;11.10;;;;;;;;;;5043139;28;20041;-74
2021/12/24 05:38:43;;;;;;;32.55;10.48;;;;;;;;;;5032778;28;20044;-74
2021/12/24 05:41:10;;;;;;;29.38;10.98;;;;;;;;;;5042716;28;20017;-74
2021/12/24 05:43:35;;;;;;;29.17;11.90;;;;;;;;;;5045957;28;20029;-74
2021/12/24 05:46:01;;;;;;;29.42;11.40;;;;;;;;;;5055164;28;20514;-74
2021/12/24 05:48:26;;;;;;;33.33;11.82;;;;;;;;;;5018556;28;20123;-74
2021/12/24 05:50:51;;;;;;;28.70;10.82;;;;;;;;;;5005103;28;20096;-74
2021/12/24 05:53:18;;;;;;;23.80;10.88;;;;;;;;;;5024939;28;20104;-74
2021/12/24 05:55:44;;;;;;;31.23;12.52;;;;;;;;;;5026850;28;20150;-74
2021/12/24 05:58:09;;;;;;;29.40;12.38;;;;;;;;;;5028170;28;20091;-74
2021/12/24 06:00:38;;;;;;;28.67;12.05;;;;;;;;;;5024647;28;20037;-74
2021/12/24 06:03:03;;;;;;;38.15;12.98;;;;;;;;;;5025083;28;20083;-74
2021/12/24 06:05:29;;;;;;;30.70;12.30;;;;;;;;;;5025434;28;20107;-74
2021/12/24 06:07:54;;;;;;;31.45;11.55;;;;;;;;;;5015011;28;20091;-74
2021/12/24 06:10:19;;;;;;;28.05;11.25;;;;;;;;;;5010472;28;20052;-74
2021/12/24 06:12:45;;;;;;;28.63;11.20;;;;;;;;;;5039543;28;20052;-74
2021/12/24 06:15:11;;;;;;;34.63;13.13;;;;;;;;;;5031692;28;20519;-74
2021/12/24 06:17:38;;;;;;;25.52;11.10;;;;;;;;;;5026120;28;20061;-74
2021/12/24 06:20:06;;;;;;;28.52;10.60;;;;;;;;;;5007093;28;20030;-74
2021/12/24 06:22:32;;;;;;;33.03;12.02;;;;;;;;;;4994702;28;20026;-74
2021/12/24 06:24:57;;;;;;;30.70;11.93;;;;;;;;;;5011524;28;20049;-74
2021/12/24 06:27:22;;;;;;;31.95;11.52;;;;;;;;;;5008066;28;20045;-74
2021/12/24 06:29:48;;;;;;;35.03;12.50;;;;;;;;;;5012674;28;20056;-74
2021/12/24 06:32:14;;;;;;;32.75;12.00;;;;;;;;;;5008131;28;20032;-74
2021/12/24 06:34:40;;;;;;;28.92;12.32;;;;;;;;;;5010694;28;20572;-74
2021/12/24 06:37:05;;;;;;;32.03;12.48;;;;;;;;;;5006925;28;20172;-74
2021/12/24 06:39:31;;;;;;;32.83;12.00;;;;;;;;;;5019784;28;20046;-74
2021/12/24 06:41:56;;;;;;;27.83;11.68;;;;;;;;;;4987091;28;20072;-74
2021/12/24 06:44:22;;;;;;;34.67;12.18;;;;;;;;;;5013856;28;20045;-74
2021/12/24 06:46:48;;;;;;;36.83;12.10;;;;;;;;;;5027247;28;20088;-74
2021/12/24 06:49:14;;;;;;;36.10;13.30;;;;;;;;;;5042914;28;20083;-74
2021/12/24 06:51:39;;;;;;;33.63;13.40;;;;;;;;;;5034518;28;20102;-74
2021/12/24 06:54:05;;;;;;;36.33;12.93;;;;;;;;;;5035980;28;20041;-74
2021/12/24 06:56:31;;;;;;;32.92;11.77;;;;;;;;;;5034214;28;20037;-74
2021/12/24 06:58:57;;;;;;;30.33;12.73;;;;;;;;;;5045085;28;20041;-74
2021/12/24 07:01:22;;;;;;;27.73;11.63;;;;;;;;;;5045219;28;20477;-74
2021/12/24 07:03:47;;;;;;;26.33;11.60;;;;;;;;;;5039511;28;20040;-74
2021/12/24 07:06:13;;;;;;;26.77;11.32;;;;;;;;;;5045099;28;20041;-74
2021/12/24 07:08:39;;;;;;;29.60;10.75;;;;;;;;;;5020467;28;20044;-74
2021/12/24 07:11:04;;;;;;;27.35;11.32;;;;;;;;;;5020823;28;20188;-74
2021/12/24 07:13:30;;;;;;;30.60;11.82;;;;;;;;;;5057640;28;20020;-74
2021/12/24 07:15:56;;;;;;;34.08;12.23;;;;;;;;;;5027686;28;20043;-74
2021/12/24 07:18:22;;;;;;;28.10;11.80;;;;;;;;;;5040368;28;20040;-74
2021/12/24 07:20:48;;;;;;;32.05;11.57;;;;;;;;;;5037613;28;20033;-74
2021/12/24 07:23:13;;;;;;;27.35;11.55;;;;;;;;;;5038425;28;20561;-75
2021/12/24 07:25:38;;;;;;;25.15;9.98;;;;;;;;;;5036936;28;20020;-74
2021/12/24 07:28:04;;;;;;;33.78;11.45;;;;;;;;;;5032375;28;20048;-75
2021/12/24 07:30:30;;;;;;;24.77;10.95;;;;;;;;;;5040428;28;20036;-74
2021/12/24 07:32:56;;;;;;;30.73;10.88;;;;;;;;;;5023391;28;20045;-75
2021/12/24 07:35:22;;;;;;;31.05;11.02;;;;;;;;;;5047517;28;20047;-75
2021/12/24 07:37:47;;;;;;;26.08;11.25;;;;;;;;;;5045631;28;20047;-74
2021/12/24 07:40:15;;;;;;;32.38;11.32;;;;;;;;;;5041858;28;20494;-74
2021/12/24 07:42:42;;;;;;;30.58;11.27;;;;;;;;;;5036127;28;20021;-74
2021/12/24 07:45:09;;;;;;;25.20;11.45;;;;;;;;;;5033359;28;20128;-74
2021/12/24 07:47:39;;;;;;;29.35;11.85;;;;;;;;;;5046626;28;20044;-75
2021/12/24 07:52:52;;;;;;;28.88;10.40;;;;;;;;;;5040500;28;20251;-75
2021/12/24 07:55:17;;;;;;;24.38;10.57;;;;;;;;;;5044387;28;20124;-75
2021/12/24 07:57:43;;;;;;;31.52;10.88;;;;;;;;;;5040852;28;20030;-75
2021/12/24 08:00:09;;;;;;;27.27;10.38;;;;;;;;;;5042300;28;20055;-75
2021/12/24 08:02:34;;;;;;;31.65;10.20;;;;;;;;;;5038639;28;20122;-74
2021/12/24 08:05:00;;;;;;;30.67;10.73;;;;;;;;;;5040949;28;20064;-75
2021/12/24 08:07:27;;;;;;;24.65;10.25;;;;;;;;;;5044667;28;20115;-75
2021/12/24 08:09:53;;;;;;;28.48;10.75;;;;;;;;;;5037973;28;20092;-74
2021/12/24 08:12:20;;;;;;;31.33;11.38;;;;;;;;;;5046066;28;20049;-75
2021/12/24 08:14:46;;;;;;;32.65;11.27;;;;;;;;;;5034612;28;20095;-75
2021/12/24 08:17:11;;;;;;;30.55;12.30;;;;;;;;;;5025757;28;20040;-75
2021/12/24 08:19:37;;;;;;;28.98;10.90;;;;;;;;;;5034132;28;20037;-74
2021/12/24 08:22:03;;;;;;;30.83;10.77;;;;;;;;;;5041321;28;20033;-75
2021/12/24 08:24:30;;;;;;;29.67;11.10;;;;;;;;;;5055929;28;20029;-75
2021/12/24 08:26:56;;;;;;;27.10;10.25;;;;;;;;;;5041557;28;20127;-74
2021/12/24 08:29:22;;;;;;;27.80;11.25;;;;;;;;;;5056684;28;20573;-75
2021/12/24 08:31:49;;;;;;;35.25;12.02;;;;;;;;;;5058764;28;20598;-75
2021/12/24 08:34:17;;;;;;;27.33;11.55;;;;;;;;;;5056375;28;20536;-75
2021/12/24 08:36:42;;;;;;;34.65;11.48;;;;;;;;;;5041547;28;20584;-75
2021/12/24 08:39:08;;;;;;;28.27;12.00;;;;;;;;;;5047951;28;20556;-75
2021/12/24 08:41:33;;;;;;;29.35;10.50;;;;;;;;;;5043953;28;20102;-75
2021/12/24 08:43:58;;;;;;;27.08;10.80;;;;;;;;;;5056093;28;20040;-74
2021/12/24 08:46:24;;;;;;;27.15;10.75;;;;;;;;;;5049780;28;20042;-75
2021/12/24 08:48:49;;;;;;;31.92;11.35;;;;;;;;;;5035624;28;20094;-75
2021/12/24 08:51:15;;;;;;;30.70;11.70;;;;;;;;;;5034071;28;20041;-75
2021/12/24 08:53:41;;;;;;;25.30;10.77;;;;;;;;;;5032387;28;20076;-75
2021/12/24 08:56:07;;;;;;;28.60;10.35;;;;;;;;;;5041083;28;20087;-75
2021/12/24 08:58:35;;;;;;;26.75;10.82;;;;;;;;;;5042365;28;20103;-75
2021/12/24 09:01:01;;;;;;;24.90;10.50;;;;;;;;;;5043068;28;20025;-75
2021/12/24 09:03:26;;;;;;;29.90;11.02;;;;;;;;;;5033867;28;20032;-75
2021/12/24 09:05:51;;;;;;;23.35;9.95;;;;;;;;;;5033844;28;20049;-74
2021/12/24 09:08:17;;;;;;;34.17;11.27;;;;;;;;;;5036742;28;20040;-75
2021/12/24 09:10:43;;;;;;;28.38;10.90;;;;;;;;;;5013895;28;20061;-75
2021/12/24 09:13:08;;;;;;;24.95;10.43;;;;;;;;;;5035620;28;20658;-74
2021/12/24 09:15:33;;;;;;;27.35;11.15;;;;;;;;;;5032691;28;20548;-74
2021/12/24 09:18:01;;;;;;;26.60;10.65;;;;;;;;;;5036694;28;20041;-75
2021/12/24 09:20:32;;;;;;;27.98;10.60;;;;;;;;;;5035033;28;20121;-74
2021/12/24 09:23:00;;;;;;;25.88;11.35;;;;;;;;;;5036510;28;20048;-75
2021/12/24 09:25:26;;;;;;;25.17;10.48;;;;;;;;;;5018731;28;20060;-74
2021/12/24 09:27:53;;;;;;;35.17;11.68;;;;;;;;;;5025680;28;20040;-75
2021/12/24 09:30:19;;;;;;;26.88;10.55;;;;;;;;;;5030612;28;20056;-75
2021/12/24 09:32:44;;;;;;;29.13;11.40;;;;;;;;;;5044080;28;20044;-75
2021/12/24 09:35:10;;;;;;;27.48;10.68;;;;;;;;;;5039343;28;20037;-75
2021/12/24 09:37:37;;;;;;;30.23;10.90;;;;;;;;;;5034821;28;20053;-75
2021/12/24 09:40:05;;;;;;;24.83;9.85;;;;;;;;;;5042149;28;20021;-75
2021/12/24 09:42:31;;;;;;;24.65;9.93;;;;;;;;;;5041636;28;20403;-75
2021/12/24 09:44:57;;;;;;;21.15;9.52;;;;;;;;;;5013987;28;20048;-74
2021/12/24 09:47:23;;;;;;;21.00;8.45;;;;;;;;;;5026542;28;20046;-75
2021/12/24 09:49:49;;;;;;;26.73;10.48;;;;;;;;;;5024957;28;20049;-75
2021/12/24 09:52:14;;;;;;;22.67;9.50;;;;;;;;;;5007893;28;20087;-74
2021/12/24 09:54:43;;;;;;;23.92;9.48;;;;;;;;;;5026406;28;20036;-76
2021/12/24 09:57:08;;;;;;;22.98;10.10;;;;;;;;;;5028004;28;20041;-72
2021/12/24 09:59:36;;;;;;;27.73;9.70;;;;;;;;;;5027042;28;20048;-72
2021/12/24 10:02:01;;;;;;;25.38;9.82;;;;;;;;;;5024316;28;20131;-74
2021/12/24 10:04:31;;;;;;;27.25;11.15;;;;;;;;;;5009200;28;20804;-74
2021/12/24 10:06:59;;;;;;;29.23;11.80;;;;;;;;;;5040708;28;20123;-74
2021/12/24 10:09:34;;;;;;;30.23;11.45;;;;;;;;;;5037721;28;20572;-74
2021/12/24 10:12:02;;;;;;;25.63;10.10;;;;;;;;;;5037371;28;20030;-74
2021/12/24 10:14:35;;;;;;;21.08;9.43;;;;;;;;;;5036667;28;20033;-74
2021/12/24 10:17:01;;;;;;;23.83;10.00;;;;;;;;;;5009464;28;20429;-74
2021/12/24 10:19:26;;;;;;;19.92;8.98;;;;;;;;;;5023622;28;20037;-74
2021/12/24 10:22:03;;;;;;;16.90;8.18;;;;;;;;;;5023830;28;20025;-74
2021/12/24 10:24:28;;;;;;;21.27;9.73;;;;;;;;;;4993807;28;20054;-74
2021/12/24 10:26:56;;;;;;;24.15;8.35;;;;;;;;;;5008608;28;20088;-74
2021/12/24 10:29:29;;;;;;;20.95;8.88;;;;;;;;;;5010157;28;20038;-74
2021/12/24 10:31:58;;;;;;;22.63;9.50;;;;;;;;;;5011830;28;20104;-74
2021/12/24 10:34:32;;;;;;;19.65;9.38;;;;;;;;;;5011643;28;20767;-74
2021/12/24 10:37:28;;;;;;;25.95;9.35;;;;;;;;;;4992718;28;20087;-74
2021/12/24 10:39:54;;;;;;;21.48;9.32;;;;;;;;;;4979012;28;20546;-73
2021/12/24 10:42:21;;;;;;;20.42;10.18;;;;;;;;;;5012434;28;20080;-74
2021/12/24 10:44:49;;;;;;;31.02;10.48;;;;;;;;;;5010215;28;20034;-74
2021/12/24 10:47:26;;;;;;;26.58;11.25;;;;;;;;;;5031057;28;20082;-73
2021/12/24 10:50:06;;;;;;;25.52;10.60;;;;;;;;;;5052971;28;20032;-73
2021/12/24 10:53:32;;;;;;;24.05;10.25;;;;;;;;;;5054491;28;20036;-73
2021/12/24 10:55:57;;;;;;;24.70;10.27;;;;;;;;;;5054778;28;20071;-74
2021/12/24 10:58:26;;;;;;;23.55;10.85;;;;;;;;;;5055910;28;20068;-73
2021/12/24 11:00:54;;;;;;;26.50;11.15;;;;;;;;;;5055551;28;20155;-74
2021/12/24 11:03:25;;;;;;;26.90;10.55;;;;;;;;;;5033788;28;20499;-73
2021/12/24 11:06:08;;;;;;;29.63;11.70;;;;;;;;;;5045196;28;20060;-73
2021/12/24 11:08:34;;;;;;;24.05;10.50;;;;;;;;;;5034409;28;20183;-74
2021/12/24 11:11:02;;;;;;;30.58;11.50;;;;;;;;;;5047725;28;20029;-74
2021/12/24 11:13:37;;;;;;;23.48;10.35;;;;;;;;;;5058142;28;20040;-73
2021/12/24 11:16:05;;;;;;;24.73;11.30;;;;;;;;;;5068051;28;21270;-74
2021/12/24 11:18:35;;;;;;;26.00;12.52;;;;;;;;;;5042091;28;20025;-74
2021/12/24 11:21:03;;;;;;;27.52;12.02;;;;;;;;;;5042137;28;20579;-74
2021/12/24 11:23:30;;;;;;;26.13;11.02;;;;;;;;;;5044072;28;20045;-74
2021/12/24 11:25:58;;;;;;;30.63;11.93;;;;;;;;;;5036070;28;20048;-76
2021/12/24 11:28:26;;;;;;;29.27;12.07;;;;;;;;;;5027239;28;20128;-75
2021/12/24 11:30:55;;;;;;;27.88;12.38;;;;;;;;;;5029730;28;20566;-75
2021/12/24 11:33:23;;;;;;;29.13;11.43;;;;;;;;;;5033399;28;20114;-76
2021/12/24 11:35:50;;;;;;;25.05;11.48;;;;;;;;;;5033828;28;20041;-76
2021/12/24 11:38:26;;;;;;;27.60;11.73;;;;;;;;;;5046880;28;20044;-75
2021/12/24 11:40:54;;;;;;;27.40;11.55;;;;;;;;;;5056741;28;20529;-75
2021/12/24 11:43:21;;;;;;;28.48;11.77;;;;;;;;;;5055760;28;20032;-76
2021/12/24 11:45:47;;;;;;;29.60;12.27;;;;;;;;;;5059301;28;20150;-76
2021/12/24 11:48:12;;;;;;;26.50;11.80;;;;;;;;;;5022919;28;20546;-76
2021/12/24 11:50:38;;;;;;;27.70;11.65;;;;;;;;;;5041870;28;20037;-76
2021/12/24 11:53:08;;;;;;;29.67;11.98;;;;;;;;;;5027825;28;20052;-77
2021/12/24 11:55:38;;;;;;;24.23;11.32;;;;;;;;;;5045844;28;20025;-76
2021/12/24 11:58:21;;;;;;;23.58;10.57;;;;;;;;;;5014802;28;20410;-75
2021/12/24 12:00:50;;;;;;;28.38;11.77;;;;;;;;;;5039597;28;20045;-76
2021/12/24 12:03:36;;;;;;;23.60;11.35;;;;;;;;;;5039403;28;20047;-76
2021/12/24 12:06:06;;;;;;;29.77;12.18;;;;;;;;;;5045191;28;20604;-76
2021/12/24 12:08:37;;;;;;;32.88;13.15;;;;;;;;;;5036166;28;20455;-76
2021/12/24 12:11:07;;;;;;;28.83;12.27;;;;;;;;;;5033548;28;20045;-76
2021/12/24 12:13:42;;;;;;;25.77;11.10;;;;;;;;;;5035149;28;20044;-76
2021/12/24 12:16:10;;;;;;;26.27;11.27;;;;;;;;;;5031499;28;20631;-76
2021/12/24 12:18:46;;;;;;;27.48;10.98;;;;;;;;;;5034861;28;20024;-76
2021/12/24 12:21:36;;;;;;;26.13;10.93;;;;;;;;;;5034679;28;20120;-75
2021/12/24 12:27:26;;;;;;;26.65;12.30;;;;;;;;;;5034989;28;20041;-74
2021/12/24 12:29:52;;;;;;;27.25;12.25;;;;;;;;;;5031419;28;20482;-76
2021/12/24 12:32:17;;;;;;;26.42;11.60;;;;;;;;;;5030785;28;20141;-76
2021/12/24 12:34:42;;;;;;;27.35;12.52;;;;;;;;;;5031888;28;20729;-76
2021/12/24 12:37:12;;;;;;;27.33;12.40;;;;;;;;;;5034345;28;21324;-75
2021/12/24 12:39:38;;;;;;;29.20;11.60;;;;;;;;;;5031523;28;20056;-76
2021/12/24 12:42:04;;;;;;;28.63;12.40;;;;;;;;;;5035619;28;20556;-76
2021/12/24 12:44:32;;;;;;;28.75;12.35;;;;;;;;;;5042741;28;20411;-76
2021/12/24 12:47:16;;;;;;;30.35;11.70;;;;;;;;;;5035047;28;20065;-76
2021/12/24 12:49:41;;;;;;;28.00;12.55;;;;;;;;;;5032122;28;20033;-76
2021/12/24 12:52:13;;;;;;;29.77;12.75;;;;;;;;;;5036666;28;20086;-76
2021/12/24 12:54:43;;;;;;;28.17;11.90;;;;;;;;;;5038735;28;20037;-76
2021/12/24 12:57:14;;;;;;;24.63;11.57;;;;;;;;;;5031494;28;20113;-76
2021/12/24 12:59:41;;;;;;;25.92;12.55;;;;;;;;;;5026188;28;20049;-76
2021/12/24 13:02:07;;;;;;;27.38;11.63;;;;;;;;;;5020209;28;20032;-76
2021/12/24 13:04:32;;;;;;;27.27;12.60;;;;;;;;;;5036727;28;20499;-76
2021/12/24 13:06:58;;;;;;;30.48;13.25;;;;;;;;;;5033065;28;20035;-76
2021/12/24 13:09:33;;;;;;;29.30;13.32;;;;;;;;;;5035932;28;20415;-76
2021/12/24 13:12:00;;;;;;;30.40;13.50;;;;;;;;;;5031625;28;20080;-76
2021/12/24 13:14:28;;;;;;;27.50;12.43;;;;;;;;;;5031670;28;20049;-74
2021/12/24 13:17:16;;;;;;;31.38;12.68;;;;;;;;;;5035768;28;20663;-74
2021/12/24 13:22:36;;;;;;;31.25;12.70;;;;;;;;;;5033166;28;20073;-74
2021/12/24 13:25:14;;;;;;;28.88;12.75;;;;;;;;;;5031899;28;20044;-74
2021/12/24 13:27:52;;;;;;;32.78;14.30;;;;;;;;;;5032304;28;20036;-74
2021/12/24 13:30:22;;;;;;;30.67;13.02;;;;;;;;;;5040809;28;20049;-74
2021/12/24 13:32:52;;;;;;;29.52;13.13;;;;;;;;;;5023412;28;21064;-75
2021/12/24 13:35:23;;;;;;;31.58;13.00;;;;;;;;;;5002655;28;20574;-74
2021/12/24 13:37:50;;;;;;;34.58;13.95;;;;;;;;;;5016660;28;20124;-74
2021/12/24 13:40:20;;;;;;;29.45;13.23;;;;;;;;;;5019369;28;20045;-74
2021/12/24 13:43:08;;;;;;;24.58;12.93;;;;;;;;;;5031648;28;20033;-74
2021/12/24 13:45:36;;;;;;;29.83;13.93;;;;;;;;;;5033043;28;20049;-74
2021/12/24 13:48:13;;;;;;;30.67;13.60;;;;;;;;;;5033402;28;20064;-75
2021/12/24 13:56:22;;;;;;;27.35;12.07;;;;;;;;;;5032997;28;20056;-74
2021/12/24 13:58:52;;;;;;;26.38;12.55;;;;;;;;;;5032890;28;20047;-72
2021/12/24 14:01:22;;;;;;;29.60;12.75;;;;;;;;;;5032508;28;20099;-74
2021/12/24 14:03:48;;;;;;;32.67;13.38;;;;;;;;;;5031572;28;20108;-74
2021/12/24 14:06:13;;;;;;;31.42;13.35;;;;;;;;;;5030513;28;20119;-74
2021/12/24 14:08:39;;;;;;;28.83;12.85;;;;;;;;;;5009537;28;20442;-74
2021/12/24 14:11:20;;;;;;;34.28;14.25;;;;;;;;;;5029586;28;20467;-74
2021/12/24 14:13:54;;;;;;;34.28;14.02;;;;;;;;;;5030548;28;20155;-74
2021/12/24 14:18:55;;;;;;;31.80;13.30;;;;;;;;;;5031661;28;20037;-74
2021/12/24 14:24:14;;;;;;;36.67;13.35;;;;;;;;;;5034074;28;20033;-74
2021/12/24 14:26:44;;;;;;;34.45;13.18;;;;;;;;;;5031828;28;20774;-74
2021/12/24 14:29:10;;;;;;;42.55;13.70;;;;;;;;;;5034678;28;20820;-74
2021/12/24 14:32:26;;;;;;;41.33;14.25;;;;;;;;;;5040300;28;20049;-74
2021/12/24 14:34:54;;;;;;;41.75;15.00;;;;;;;;;;4941789;28;20039;-74
2021/12/24 14:37:33;;;;;;;38.47;14.93;;;;;;;;;;4955336;28;20042;-74
2021/12/24 14:40:08;;;;;;;44.00;15.30;;;;;;;;;;5005785;28;20052;-74
2021/12/24 14:42:38;;;;;;;41.70;14.10;;;;;;;;;;5034060;28;20120;-74
2021/12/24 14:45:11;;;;;;;39.55;14.57;;;;;;;;;;5030403;28;20045;-74
2021/12/24 14:47:38;;;;;;;40.97;13.88;;;;;;;;;;5049366;28;20079;-74
2021/12/24 14:50:06;;;;;;;48.70;14.38;;;;;;;;;;5053555;28;20552;-74
2021/12/24 14:52:31;;;;;;;48.60;14.13;;;;;;;;;;5062367;28;20522;-74
2021/12/24 14:55:20;;;;;;;41.80;13.82;;;;;;;;;;5062072;28;20039;-74
2021/12/24 14:57:53;;;;;;;38.60;12.70;;;;;;;;;;5052436;28;20082;-74
2021/12/24 15:00:32;;;;;;;41.13;13.73;;;;;;;;;;5052543;28;20510;-74
2021/12/24 15:03:01;;;;;;;43.75;14.52;;;;;;;;;;5039122;28;20043;-74
2021/12/24 15:05:33;;;;;;;54.35;16.83;;;;;;;;;;5055170;28;20142;-74
2021/12/24 15:08:00;;;;;;;51.00;14.98;;;;;;;;;;5033888;28;20055;-74
2021/12/24 15:10:26;;;;;;;38.50;13.73;;;;;;;;;;5038842;28;20044;-74
2021/12/24 15:13:02;;;;;;;39.05;13.02;;;;;;;;;;5043200;28;20032;-74
2021/12/24 15:15:29;;;;;;;34.83;11.98;;;;;;;;;;5045694;28;20149;-74
2021/12/24 15:17:54;;;;;;;39.92;13.35;;;;;;;;;;5041226;28;20118;-74
2021/12/24 15:20:20;;;;;;;44.35;13.38;;;;;;;;;;5054252;28;20449;-74
2021/12/24 15:22:46;;;;;;;38.50;13.75;;;;;;;;;;5052066;28;20403;-73
2021/12/24 15:25:12;;;;;;;42.17;13.60;;;;;;;;;;5053818;28;20529;-74
2021/12/24 15:27:38;;;;;;;39.97;13.90;;;;;;;;;;5053901;28;20021;-74
2021/12/24 15:30:07;;;;;;;41.00;14.27;;;;;;;;;;5037593;28;20099;-75
2021/12/24 15:32:33;;;;;;;39.67;14.20;;;;;;;;;;5039970;28;20037;-74
2021/12/24 15:34:59;;;;;;;43.45;15.43;;;;;;;;;;5032704;28;20494;-73
2021/12/24 15:37:24;;;;;;;43.85;15.43;;;;;;;;;;5055925;28;20443;-74
2021/12/24 15:39:50;;;;;;;38.40;14.55;;;;;;;;;;5018571;28;20033;-75
2021/12/24 15:42:16;;;;;;;39.47;13.63;;;;;;;;;;5024065;28;20041;-74
2021/12/24 15:44:46;;;;;;;40.67;13.93;;;;;;;;;;5028792;28;20585;-74
2021/12/24 15:47:12;;;;;;;44.72;15.00;;;;;;;;;;5020248;28;20054;-74
2021/12/24 15:49:37;;;;;;;44.42;17.33;;;;;;;;;;5013394;28;20048;-74
2021/12/24 15:52:02;;;;;;;44.00;14.85;;;;;;;;;;5011450;28;20034;-75
2021/12/24 15:54:29;;;;;;;41.58;15.55;;;;;;;;;;5023857;28;20105;-74
2021/12/24 15:56:54;;;;;;;46.15;16.77;;;;;;;;;;4994466;28;20080;-74
2021/12/24 15:59:20;;;;;;;38.97;15.95;;;;;;;;;;5023599;28;20423;-74
2021/12/24 16:01:45;;;;;;;43.28;15.07;;;;;;;;;;5025445;28;20539;-74
2021/12/24 16:04:10;;;;;;;38.25;14.77;;;;;;;;;;5033518;28;20403;-75
2021/12/24 16:06:35;;;;;;;39.22;14.32;;;;;;;;;;5019726;28;20057;-74
2021/12/24 16:09:01;;;;;;;48.30;15.85;;;;;;;;;;5018540;28;21039;-74
2021/12/24 16:11:26;;;;;;;43.92;15.27;;;;;;;;;;5015029;28;20052;-74
2021/12/24 16:13:51;;;;;;;45.75;16.25;;;;;;;;;;5021539;28;20409;-74
2021/12/24 16:16:23;;;;;;;40.60;15.38;;;;;;;;;;5034755;28;20041;-74
2021/12/24 16:18:49;;;;;;;35.47;13.98;;;;;;;;;;5034058;28;20057;-74